Time;durP1;ratioP1;P1;durP2;ratioP2;P2;SDS_P1;SDS_P2;PMS_P1;PMS_P2;Temp;Humidity;BMP_temperature;BMP_pressure;BME280_temperature;BME280_humidity;BME280_pressure;Samples;Min_cycle;Max_cycle;Signal;HPM_P1;HPM_P2
2023/05/25 00:00:09;;;;;;;11.60;8.00;;;9.80;99.90;;;;;;5046579;28;20425;-75
2023/05/25 00:02:35;;;;;;;9.50;7.23;;;9.70;99.90;;;;;;5048334;28;20781;-75
2023/05/25 00:05:01;;;;;;;9.90;7.23;;;9.80;99.90;;;;;;5046333;28;20420;-75
2023/05/25 00:07:27;;;;;;;11.20;7.60;;;9.80;99.90;;;;;;5047752;28;20972;-75
2023/05/25 00:09:53;;;;;;;10.77;7.60;;;9.90;99.90;;;;;;5048178;28;20803;-75
2023/05/25 00:12:19;;;;;;;13.93;7.83;;;9.90;99.90;;;;;;5048208;28;20419;-75
2023/05/25 00:14:45;;;;;;;15.30;8.43;;;9.90;99.90;;;;;;5030099;28;20473;-75
2023/05/25 00:17:11;;;;;;;13.33;8.90;;;10.00;99.90;;;;;;5047879;28;20464;-75
2023/05/25 00:19:43;;;;;;;11.97;8.37;;;10.10;99.90;;;;;;5030097;28;20867;-75
2023/05/25 00:22:10;;;;;;;12.43;8.37;;;10.20;99.90;;;;;;5048175;28;20185;-75
2023/05/25 00:24:37;;;;;;;17.40;8.87;;;10.20;99.90;;;;;;5047916;28;20916;-75
2023/05/25 00:27:03;;;;;;;14.70;8.23;;;10.30;99.90;;;;;;5051220;28;20451;-75
2023/05/25 00:29:29;;;;;;;13.73;9.00;;;10.20;99.90;;;;;;5051623;28;20463;-75
2023/05/25 00:31:55;;;;;;;14.43;8.63;;;10.30;99.90;;;;;;5051964;28;20825;-75
2023/05/25 00:34:21;;;;;;;18.47;8.87;;;10.30;99.90;;;;;;5033947;28;20243;-74
2023/05/25 00:36:47;;;;;;;12.23;8.73;;;10.20;99.90;;;;;;5051466;28;20443;-75
2023/05/25 00:39:19;;;;;;;10.17;7.87;;;10.20;99.90;;;;;;5052036;28;20428;-75
2023/05/25 00:41:46;;;;;;;9.40;7.17;;;10.10;99.90;;;;;;5030767;28;20182;-75
2023/05/25 00:44:14;;;;;;;12.13;8.10;;;10.00;99.90;;;;;;5031902;28;20425;-75
2023/05/25 00:46:46;;;;;;;12.30;7.63;;;10.10;99.90;;;;;;5032051;28;20995;-75
2023/05/25 00:49:14;;;;;;;12.90;8.13;;;10.00;99.90;;;;;;5032155;28;20499;-75
2023/05/25 00:51:41;;;;;;;8.90;7.20;;;10.00;99.90;;;;;;5014266;28;20417;-74
2023/05/25 00:54:06;;;;;;;13.70;8.13;;;9.90;99.90;;;;;;5031740;28;20419;-75
2023/05/25 00:56:36;;;;;;;11.00;7.87;;;9.90;99.90;;;;;;5031984;28;20516;-75
2023/05/25 00:59:05;;;;;;;11.77;7.60;;;9.90;99.90;;;;;;5031569;28;20182;-75
2023/05/25 01:01:38;;;;;;;12.00;7.33;;;9.80;99.90;;;;;;5030035;28;20420;-75
2023/05/25 01:04:07;;;;;;;10.50;7.20;;;9.80;99.90;;;;;;5031256;28;20413;-75
2023/05/25 01:06:34;;;;;;;11.20;7.40;;;9.70;99.90;;;;;;5030411;28;20432;-75
2023/05/25 01:09:03;;;;;;;12.53;8.27;;;9.60;99.90;;;;;;5031429;28;20457;-75
2023/05/25 01:11:35;;;;;;;13.77;8.67;;;9.60;99.90;;;;;;5031449;28;21097;-75
2023/05/25 01:14:01;;;;;;;11.43;7.20;;;9.50;99.90;;;;;;5013667;28;20409;-75
2023/05/25 01:16:28;;;;;;;10.20;7.93;;;9.60;99.90;;;;;;5031453;28;20437;-75
2023/05/25 01:18:54;;;;;;;13.63;7.30;;;9.60;99.90;;;;;;5031364;28;20409;-74
2023/05/25 01:21:29;;;;;;;13.13;8.10;;;9.50;99.90;;;;;;5031327;28;20512;-75
2023/05/25 01:24:07;;;;;;;13.90;8.27;;;9.50;99.90;;;;;;5044978;28;20502;-75
2023/05/25 01:26:41;;;;;;;11.97;8.10;;;9.60;99.90;;;;;;5051281;28;20432;-75
2023/05/25 01:29:09;;;;;;;12.90;7.57;;;9.50;99.90;;;;;;5050941;28;20540;-75
2023/05/25 01:31:35;;;;;;;12.67;7.40;;;9.50;99.90;;;;;;5050862;28;20824;-74
2023/05/25 01:34:01;;;;;;;11.30;8.20;;;9.40;99.90;;;;;;5050991;28;20416;-74
2023/05/25 01:36:27;;;;;;;9.50;8.20;;;9.50;99.90;;;;;;5032827;28;20437;-74
2023/05/25 01:38:52;;;;;;;13.47;8.80;;;9.50;99.90;;;;;;5050996;28;20424;-74
2023/05/25 01:41:18;;;;;;;13.30;8.13;;;9.40;99.90;;;;;;5050662;28;20190;-74
2023/05/25 01:43:44;;;;;;;12.20;9.20;;;9.40;99.90;;;;;;5050630;28;20265;-74
2023/05/25 01:46:36;;;;;;;11.47;8.13;;;9.40;99.90;;;;;;5050811;28;20270;-74
2023/05/25 01:49:30;;;;;;;11.43;7.53;;;9.40;99.90;;;;;;5050554;28;20456;-74
2023/05/25 01:52:09;;;;;;;10.83;8.00;;;9.40;99.90;;;;;;5050913;28;20499;-74
2023/05/25 01:54:39;;;;;;;14.27;9.10;;;9.30;99.90;;;;;;5050634;28;20419;-74
2023/05/25 01:57:14;;;;;;;12.10;8.60;;;9.30;99.90;;;;;;5050427;28;20845;-74
2023/05/25 01:59:42;;;;;;;11.17;8.90;;;9.30;99.90;;;;;;5050594;28;20439;-74
2023/05/25 02:02:09;;;;;;;15.20;9.30;;;9.30;99.90;;;;;;5049068;28;20458;-74
2023/05/25 02:04:35;;;;;;;13.47;8.00;;;9.30;99.90;;;;;;5048559;28;20417;-74
2023/05/25 02:07:03;;;;;;;13.90;8.80;;;9.20;99.90;;;;;;5050270;28;20498;-74
2023/05/25 02:09:29;;;;;;;15.40;9.60;;;9.20;99.90;;;;;;5050352;28;21113;-75
2023/05/25 02:11:54;;;;;;;13.63;9.90;;;9.20;99.90;;;;;;5050535;28;20504;-74
2023/05/25 02:14:20;;;;;;;14.13;9.60;;;9.20;99.90;;;;;;5050168;28;20543;-74
2023/05/25 02:16:47;;;;;;;19.10;9.70;;;9.20;99.90;;;;;;5049886;28;20221;-74
2023/05/25 02:19:15;;;;;;;16.77;9.60;;;9.20;99.90;;;;;;5032442;28;20474;-74
2023/05/25 02:21:41;;;;;;;13.53;10.20;;;9.20;99.90;;;;;;5050154;28;20449;-75
2023/05/25 02:24:08;;;;;;;16.47;10.50;;;9.20;99.90;;;;;;5049939;28;20456;-74
2023/05/25 02:26:37;;;;;;;15.13;9.60;;;9.20;99.90;;;;;;5050113;28;20437;-74
2023/05/25 02:29:06;;;;;;;17.70;11.80;;;9.10;99.90;;;;;;5049728;28;20470;-74
2023/05/25 02:31:32;;;;;;;18.57;11.23;;;9.10;99.90;;;;;;5050097;28;20426;-74
2023/05/25 02:33:58;;;;;;;15.87;10.70;;;9.00;99.90;;;;;;5031843;28;20866;-74
2023/05/25 02:36:23;;;;;;;15.57;10.60;;;9.00;99.90;;;;;;5049917;28;20316;-74
2023/05/25 02:38:50;;;;;;;19.77;11.50;;;9.00;99.90;;;;;;5049566;28;20261;-74
2023/05/25 02:41:22;;;;;;;19.70;10.73;;;9.00;99.90;;;;;;5049896;28;20198;-75
2023/05/25 02:43:49;;;;;;;16.13;12.47;;;9.00;99.90;;;;;;5031796;28;20435;-75
2023/05/25 02:46:14;;;;;;;13.13;9.83;;;9.10;99.90;;;;;;5049864;28;20899;-74
2023/05/25 02:48:41;;;;;;;16.70;11.07;;;9.10;99.90;;;;;;5048544;28;20491;-74
2023/05/25 02:51:07;;;;;;;13.47;10.00;;;9.10;99.90;;;;;;5049762;28;20580;-74
2023/05/25 02:53:33;;;;;;;14.00;9.80;;;9.10;99.90;;;;;;5031518;28;20416;-74
2023/05/25 02:55:59;;;;;;;13.90;9.13;;;9.10;99.90;;;;;;5049819;28;20540;-75
2023/05/25 02:58:24;;;;;;;15.73;8.53;;;9.10;99.90;;;;;;5049432;28;20639;-74
2023/05/25 03:00:50;;;;;;;15.27;9.67;;;9.20;99.90;;;;;;5047847;28;20427;-75
2023/05/25 03:03:16;;;;;;;11.30;8.70;;;9.10;99.90;;;;;;5049271;28;20420;-74
2023/05/25 03:05:42;;;;;;;10.77;8.37;;;9.00;99.90;;;;;;5048546;28;20421;-74
2023/05/25 03:08:07;;;;;;;13.50;8.40;;;8.90;99.90;;;;;;5049233;28;20178;-74
2023/05/25 03:10:33;;;;;;;14.50;9.03;;;8.90;99.90;;;;;;5048987;28;20212;-74
2023/05/25 03:12:59;;;;;;;10.83;9.60;;;8.80;99.90;;;;;;5049191;28;20174;-74
2023/05/25 03:15:25;;;;;;;16.47;9.10;;;8.90;99.90;;;;;;5049343;28;20178;-74
2023/05/25 03:17:50;;;;;;;14.27;8.67;;;8.90;99.90;;;;;;5048826;28;20198;-74
2023/05/25 03:20:16;;;;;;;15.97;9.67;;;8.90;99.90;;;;;;5049154;28;20178;-74
2023/05/25 03:22:42;;;;;;;12.17;8.23;;;8.90;99.90;;;;;;5049004;28;20192;-74
2023/05/25 03:25:11;;;;;;;14.47;9.20;;;8.80;99.90;;;;;;5049041;28;20539;-74
2023/05/25 03:27:37;;;;;;;20.90;11.23;;;8.80;99.90;;;;;;5048626;28;20432;-74
2023/05/25 03:30:04;;;;;;;11.80;8.97;;;8.80;99.90;;;;;;5048727;28;20459;-75
2023/05/25 03:32:29;;;;;;;12.20;9.57;;;8.80;99.90;;;;;;5049022;28;20443;-74
2023/05/25 03:34:55;;;;;;;11.83;9.20;;;8.80;99.90;;;;;;5048801;28;20412;-74
2023/05/25 03:37:21;;;;;;;12.90;9.80;;;8.80;99.90;;;;;;5048694;28;20712;-74
2023/05/25 03:39:46;;;;;;;16.73;9.63;;;8.70;99.90;;;;;;5048602;28;20259;-74
2023/05/25 03:42:12;;;;;;;14.50;9.73;;;8.70;99.90;;;;;;5048762;28;20182;-74
2023/05/25 03:44:38;;;;;;;15.30;9.43;;;8.60;99.90;;;;;;5048491;28;20212;-74
2023/05/25 03:47:03;;;;;;;14.23;10.17;;;8.60;99.90;;;;;;5048525;28;20221;-75
2023/05/25 03:49:31;;;;;;;10.60;9.40;;;8.60;99.90;;;;;;5048553;28;20761;-74
2023/05/25 03:51:59;;;;;;;11.13;9.17;;;8.60;99.90;;;;;;5048944;28;20412;-74
2023/05/25 03:54:25;;;;;;;13.27;9.53;;;8.60;99.90;;;;;;5048388;28;20511;-74
2023/05/25 03:56:50;;;;;;;12.93;10.07;;;8.50;99.90;;;;;;5048499;28;20431;-74
2023/05/25 03:59:17;;;;;;;14.63;10.27;;;8.60;99.90;;;;;;5048568;28;20408;-74
2023/05/25 04:01:43;;;;;;;10.73;8.57;;;8.50;99.90;;;;;;5047036;28;20271;-74
2023/05/25 04:04:09;;;;;;;14.27;10.20;;;8.60;99.90;;;;;;5047825;28;20444;-74
2023/05/25 04:06:38;;;;;;;13.60;10.33;;;8.70;99.90;;;;;;5048031;28;20471;-74
2023/05/25 04:09:04;;;;;;;15.80;10.60;;;8.70;99.90;;;;;;5048433;28;20256;-74
2023/05/25 04:11:33;;;;;;;15.77;10.70;;;8.70;99.90;;;;;;5048056;28;20416;-74
2023/05/25 04:13:58;;;;;;;17.47;11.40;;;8.70;99.90;;;;;;5048201;28;20494;-74
2023/05/25 04:16:25;;;;;;;15.77;10.17;;;8.80;99.90;;;;;;5048440;28;20432;-74
2023/05/25 04:18:50;;;;;;;16.90;12.00;;;8.80;99.90;;;;;;5048407;28;20189;-74
2023/05/25 04:21:16;;;;;;;17.00;10.83;;;8.90;99.90;;;;;;5048287;28;20420;-74
2023/05/25 04:23:42;;;;;;;17.13;10.83;;;9.00;99.90;;;;;;5030276;28;20297;-74
2023/05/25 04:26:09;;;;;;;16.50;12.40;;;9.00;99.90;;;;;;5030753;28;20594;-74
2023/05/25 04:28:35;;;;;;;15.57;11.13;;;9.00;99.90;;;;;;5048193;28;20178;-74
2023/05/25 04:31:02;;;;;;;16.73;12.30;;;9.00;99.90;;;;;;5048272;28;20423;-74
2023/05/25 04:33:28;;;;;;;16.93;11.20;;;9.00;99.90;;;;;;5030419;28;20405;-74
2023/05/25 04:35:57;;;;;;;17.07;11.50;;;9.10;99.90;;;;;;5046550;28;21202;-74
2023/05/25 04:38:24;;;;;;;20.43;13.40;;;9.20;99.90;;;;;;5030136;28;20558;-74
2023/05/25 04:40:50;;;;;;;18.27;11.30;;;9.30;99.90;;;;;;5044495;28;20538;-74
2023/05/25 04:43:19;;;;;;;16.67;11.37;;;9.40;99.90;;;;;;5044947;28;20448;-74
2023/05/25 04:45:45;;;;;;;17.97;12.13;;;9.40;99.90;;;;;;5048131;28;20522;-75
2023/05/25 04:48:12;;;;;;;20.40;12.90;;;9.40;99.90;;;;;;5046809;28;20829;-74
2023/05/25 04:50:41;;;;;;;18.17;12.53;;;9.50;99.90;;;;;;5034713;28;20503;-75
2023/05/25 04:53:07;;;;;;;19.37;13.47;;;9.60;99.90;;;;;;5047967;28;20759;-74
2023/05/25 04:55:33;;;;;;;18.43;11.53;;;9.70;99.90;;;;;;5048267;28;20432;-74
2023/05/25 04:57:59;;;;;;;15.67;13.40;;;9.70;99.90;;;;;;5048321;28;20181;-74
2023/05/25 05:00:26;;;;;;;17.97;12.50;;;9.80;99.90;;;;;;5029103;28;20181;-74
2023/05/25 05:02:55;;;;;;;16.57;12.17;;;9.80;99.90;;;;;;5048321;28;20412;-74
2023/05/25 05:05:21;;;;;;;16.00;11.70;;;9.90;99.90;;;;;;5047026;28;20424;-74
2023/05/25 05:07:47;;;;;;;16.33;10.83;;;10.00;99.90;;;;;;5048047;28;20443;-74
2023/05/25 05:10:12;;;;;;;13.87;10.93;;;10.10;99.90;;;;;;5048135;28;20455;-74
2023/05/25 05:12:38;;;;;;;18.70;11.43;;;10.10;99.90;;;;;;5032949;28;20201;-74
2023/05/25 05:15:04;;;;;;;16.30;11.60;;;10.20;99.90;;;;;;5051421;28;20662;-74
2023/05/25 05:17:30;;;;;;;17.00;11.20;;;10.20;99.90;;;;;;5033534;28;20194;-74
2023/05/25 05:19:56;;;;;;;15.67;11.80;;;10.20;99.90;;;;;;5051214;28;20777;-74
2023/05/25 05:22:21;;;;;;;13.83;11.47;;;10.30;99.90;;;;;;5017194;28;20546;-74
2023/05/25 05:24:47;;;;;;;15.20;10.73;;;10.30;99.90;;;;;;5051269;28;20917;-74
2023/05/25 05:27:14;;;;;;;18.97;11.30;;;10.30;99.90;;;;;;5051048;28;20609;-74
2023/05/25 05:29:41;;;;;;;15.80;11.90;;;10.40;99.90;;;;;;5051060;28;20216;-74
2023/05/25 05:32:07;;;;;;;19.23;11.87;;;10.50;99.90;;;;;;5051071;28;20478;-74
2023/05/25 05:34:33;;;;;;;15.60;9.67;;;10.50;99.90;;;;;;5050444;28;20495;-74
2023/05/25 05:36:59;;;;;;;17.60;10.70;;;10.50;99.90;;;;;;5050724;28;20491;-74
2023/05/25 05:39:26;;;;;;;16.53;10.93;;;10.50;99.90;;;;;;5051088;28;20781;-75
2023/05/25 05:41:52;;;;;;;22.27;12.73;;;10.50;99.90;;;;;;5051275;28;20169;-74
2023/05/25 05:44:20;;;;;;;21.13;12.77;;;10.50;99.90;;;;;;5050929;28;20454;-75
2023/05/25 05:46:45;;;;;;;16.30;11.43;;;10.60;99.90;;;;;;5050679;28;20498;-75
2023/05/25 05:49:11;;;;;;;17.60;11.97;;;10.60;99.90;;;;;;5033342;28;20464;-75
2023/05/25 05:51:37;;;;;;;18.03;12.10;;;10.70;99.90;;;;;;5050602;28;20166;-75
2023/05/25 05:54:03;;;;;;;17.70;11.37;;;10.70;99.90;;;;;;5050801;28;20764;-75
2023/05/25 05:56:29;;;;;;;25.30;13.30;;;10.70;99.90;;;;;;5050715;28;20193;-74
2023/05/25 05:58:54;;;;;;;14.07;11.60;;;10.90;99.90;;;;;;5050647;28;20419;-74
2023/05/25 06:01:20;;;;;;;14.20;10.87;;;11.00;99.90;;;;;;5050637;28;20742;-75
2023/05/25 06:03:47;;;;;;;14.47;11.57;;;11.10;99.90;;;;;;5032795;28;20174;-74
2023/05/25 06:06:13;;;;;;;16.70;10.80;;;11.20;99.90;;;;;;5050431;28;20567;-74
2023/05/25 06:08:41;;;;;;;15.47;10.20;;;11.40;99.90;;;;;;5050206;28;20440;-75
2023/05/25 06:11:07;;;;;;;15.80;11.20;;;11.50;99.90;;;;;;5048684;28;20440;-74
2023/05/25 06:13:33;;;;;;;16.00;11.33;;;11.70;99.90;;;;;;5043748;28;20437;-75
2023/05/25 06:15:59;;;;;;;18.67;12.27;;;11.80;99.90;;;;;;5049931;28;20429;-74
2023/05/25 06:18:25;;;;;;;14.30;11.67;;;11.90;99.90;;;;;;5048360;28;20549;-74
2023/05/25 06:20:50;;;;;;;16.73;11.80;;;12.00;99.90;;;;;;5042692;28;20425;-75
2023/05/25 06:23:17;;;;;;;19.47;11.33;;;12.00;99.90;;;;;;5043519;28;20256;-75
2023/05/25 06:25:44;;;;;;;16.70;11.40;;;12.10;99.90;;;;;;5046425;28;20177;-74
2023/05/25 06:28:10;;;;;;;17.97;12.37;;;12.20;99.90;;;;;;5030379;28;20420;-75
2023/05/25 06:30:35;;;;;;;17.30;11.53;;;12.20;99.90;;;;;;5031419;28;20470;-75
2023/05/25 06:33:01;;;;;;;18.03;12.00;;;12.30;99.90;;;;;;5049670;28;20186;-75
2023/05/25 06:35:27;;;;;;;18.47;12.70;;;12.40;99.90;;;;;;5049409;28;20202;-75
2023/05/25 06:37:53;;;;;;;18.90;11.63;;;12.50;99.90;;;;;;5030964;28;20986;-74
2023/05/25 06:40:18;;;;;;;18.20;13.00;;;12.50;99.90;;;;;;5049007;28;20181;-75
2023/05/25 06:42:44;;;;;;;17.53;12.57;;;12.60;99.90;;;;;;5049286;28;20558;-74
2023/05/25 06:45:10;;;;;;;16.77;11.67;;;12.60;99.90;;;;;;5049249;28;20180;-74
2023/05/25 06:47:36;;;;;;;17.47;11.37;;;12.60;99.90;;;;;;5049128;28;20287;-74
2023/05/25 06:50:02;;;;;;;17.60;10.80;;;12.70;99.90;;;;;;5031337;28;21125;-75
2023/05/25 06:52:28;;;;;;;15.17;11.10;;;12.60;99.90;;;;;;5049675;28;20478;-74
2023/05/25 06:54:55;;;;;;;17.50;11.00;;;12.70;99.90;;;;;;5031175;28;20412;-74
2023/05/25 06:57:22;;;;;;;14.97;10.60;;;12.70;99.90;;;;;;5049258;28;20214;-74
2023/05/25 06:59:47;;;;;;;17.70;12.40;;;12.80;99.90;;;;;;5049449;28;20450;-74
2023/05/25 07:02:13;;;;;;;13.67;11.47;;;12.80;99.90;;;;;;5031464;28;20416;-75
2023/05/25 07:04:39;;;;;;;13.97;11.33;;;12.80;99.90;;;;;;5047588;28;20185;-75
2023/05/25 07:07:05;;;;;;;16.47;11.10;;;12.70;99.90;;;;;;5048670;28;20680;-74
2023/05/25 07:09:31;;;;;;;20.33;13.80;;;12.70;99.90;;;;;;5031317;28;20266;-75
2023/05/25 07:11:57;;;;;;;17.43;14.97;;;12.60;99.90;;;;;;5031155;28;20925;-75
2023/05/25 07:14:23;;;;;;;23.20;14.63;;;12.60;99.90;;;;;;5048995;28;20419;-75
2023/05/25 07:16:48;;;;;;;22.87;16.53;;;12.60;99.90;;;;;;5048903;28;20428;-75
2023/05/25 07:19:14;;;;;;;29.30;21.87;;;12.60;99.90;;;;;;5048932;28;20186;-75
2023/05/25 07:21:40;;;;;;;33.23;24.30;;;12.60;99.90;;;;;;5048934;28;20177;-75
2023/05/25 07:24:06;;;;;;;48.73;34.93;;;12.70;99.90;;;;;;5048748;28;20593;-74
2023/05/25 07:26:33;;;;;;;49.83;33.83;;;12.70;99.90;;;;;;5049163;28;20201;-74
2023/05/25 07:28:59;;;;;;;47.53;35.63;;;12.80;99.90;;;;;;5030846;28;20166;-74
2023/05/25 07:31:25;;;;;;;42.93;33.60;;;12.90;99.90;;;;;;5048859;28;20419;-74
2023/05/25 07:33:52;;;;;;;43.50;30.83;;;12.90;99.90;;;;;;5048330;28;20771;-75
2023/05/25 07:36:18;;;;;;;48.40;33.67;;;13.00;99.90;;;;;;5048973;28;20213;-75
2023/05/25 07:38:44;;;;;;;43.30;29.67;;;13.00;99.90;;;;;;5048427;28;20412;-74
2023/05/25 07:41:12;;;;;;;47.93;31.43;;;13.00;99.90;;;;;;5048929;28;20781;-74
2023/05/25 07:43:38;;;;;;;36.83;28.80;;;13.10;99.90;;;;;;5048431;28;20288;-74
2023/05/25 07:46:03;;;;;;;39.37;29.03;;;13.10;99.90;;;;;;5048954;28;20538;-74
2023/05/25 07:48:29;;;;;;;40.33;29.13;;;13.10;99.90;;;;;;5030585;28;20538;-74
2023/05/25 07:50:56;;;;;;;32.80;21.83;;;13.20;99.90;;;;;;5048576;28;20249;-75
2023/05/25 07:53:22;;;;;;;41.70;30.00;;;13.20;99.90;;;;;;5048316;28;20977;-75
2023/05/25 07:55:47;;;;;;;44.00;31.80;;;13.20;99.90;;;;;;5048948;28;20177;-74
2023/05/25 07:58:13;;;;;;;39.50;30.00;;;13.20;99.90;;;;;;5048327;28;20200;-74
2023/05/25 08:00:39;;;;;;;35.50;25.07;;;13.30;99.90;;;;;;5048672;28;20185;-75
2023/05/25 08:03:05;;;;;;;25.47;17.80;;;13.30;99.90;;;;;;5048368;28;20248;-75
2023/05/25 08:05:30;;;;;;;21.37;13.57;;;13.20;99.90;;;;;;5029333;28;20416;-74
2023/05/25 08:07:56;;;;;;;15.93;12.33;;;13.20;99.90;;;;;;5048417;28;20519;-74
2023/05/25 08:10:22;;;;;;;20.53;13.47;;;13.30;99.90;;;;;;5047914;28;20226;-74
2023/05/25 08:12:48;;;;;;;20.60;15.20;;;13.30;99.90;;;;;;5048675;28;20173;-75
2023/05/25 08:15:14;;;;;;;18.90;16.10;;;13.30;99.90;;;;;;5047461;28;20420;-75
2023/05/25 08:17:40;;;;;;;22.90;15.27;;;13.30;99.90;;;;;;5047716;28;20812;-75
2023/05/25 08:20:07;;;;;;;20.97;15.83;;;13.40;99.90;;;;;;5048270;28;20508;-74
2023/05/25 08:22:33;;;;;;;19.60;14.97;;;13.40;99.90;;;;;;5048544;28;20186;-75
2023/05/25 08:24:59;;;;;;;14.63;10.90;;;13.40;99.90;;;;;;5047878;28;20785;-74
2023/05/25 08:27:25;;;;;;;15.70;13.00;;;13.30;99.90;;;;;;5047008;28;20527;-74
2023/05/25 08:29:51;;;;;;;14.03;9.23;;;13.40;99.90;;;;;;5047429;28;20290;-74
2023/05/25 08:32:17;;;;;;;14.90;9.10;;;13.40;99.90;;;;;;5048064;28;20438;-74
2023/05/25 08:34:42;;;;;;;9.80;7.77;;;13.50;99.90;;;;;;5047943;28;20730;-75
2023/05/25 08:37:08;;;;;;;11.57;8.13;;;13.50;99.90;;;;;;5047980;28;20202;-75
2023/05/25 08:39:34;;;;;;;12.13;8.47;;;13.50;99.90;;;;;;5030314;28;20620;-74
2023/05/25 08:41:59;;;;;;;13.40;10.00;;;13.50;99.90;;;;;;5048120;28;20209;-74
2023/05/25 08:44:27;;;;;;;14.30;8.77;;;13.60;99.90;;;;;;5047927;28;20182;-74
2023/05/25 08:46:55;;;;;;;11.40;8.50;;;13.60;99.90;;;;;;5049354;28;20300;-74
2023/05/25 08:49:22;;;;;;;14.97;7.97;;;13.70;99.90;;;;;;5051752;28;20494;-74
2023/05/25 08:51:52;;;;;;;11.90;7.90;;;13.70;99.90;;;;;;5052040;28;20408;-75
2023/05/25 08:54:21;;;;;;;9.60;7.30;;;13.70;99.90;;;;;;5051648;28;20412;-74
2023/05/25 08:56:54;;;;;;;8.87;6.63;;;13.80;99.90;;;;;;5051697;28;20535;-75
2023/05/25 08:59:32;;;;;;;12.80;7.20;;;13.80;99.90;;;;;;5051733;28;20491;-75
2023/05/25 09:02:15;;;;;;;9.00;7.07;;;13.80;99.90;;;;;;5051960;28;20416;-75
2023/05/25 09:04:42;;;;;;;13.80;8.20;;;13.90;99.90;;;;;;5049282;28;20511;-75
2023/05/25 09:07:08;;;;;;;9.63;6.60;;;13.90;99.90;;;;;;5033470;28;20467;-74
2023/05/25 09:09:35;;;;;;;12.60;8.87;;;14.00;99.90;;;;;;5051451;28;20460;-75
2023/05/25 09:12:03;;;;;;;12.13;7.70;;;14.00;99.90;;;;;;5051659;28;20419;-74
2023/05/25 09:14:29;;;;;;;10.20;7.30;;;14.10;99.90;;;;;;5051413;28;20492;-72
2023/05/25 09:16:57;;;;;;;12.97;7.50;;;14.10;99.90;;;;;;5051209;28;20429;-75
2023/05/25 09:19:23;;;;;;;12.47;6.57;;;14.10;99.90;;;;;;5051589;28;20901;-74
2023/05/25 09:21:49;;;;;;;7.93;6.40;;;14.10;99.90;;;;;;5051500;28;20466;-74
2023/05/25 09:24:16;;;;;;;11.00;7.20;;;14.00;99.90;;;;;;5051089;28;20185;-75
2023/05/25 09:26:45;;;;;;;13.10;8.30;;;14.00;99.90;;;;;;5051390;28;20432;-75
2023/05/25 09:29:13;;;;;;;11.70;7.30;;;14.00;99.90;;;;;;5051366;28;20490;-75
2023/05/25 09:31:39;;;;;;;11.10;7.30;;;14.00;99.90;;;;;;5051124;28;20927;-75
2023/05/25 09:34:14;;;;;;;10.17;7.07;;;14.00;99.90;;;;;;5050957;28;20413;-74
2023/05/25 09:36:42;;;;;;;9.23;7.33;;;14.00;99.90;;;;;;5051206;28;20474;-75
2023/05/25 09:39:09;;;;;;;10.03;6.63;;;14.00;99.90;;;;;;5050880;28;20807;-75
2023/05/25 09:41:35;;;;;;;8.73;6.30;;;14.10;99.90;;;;;;5050936;28;20493;-74
2023/05/25 09:44:03;;;;;;;8.90;6.43;;;14.10;99.90;;;;;;5050830;28;20993;-74
2023/05/25 09:46:30;;;;;;;9.17;6.80;;;14.10;99.90;;;;;;5050868;28;20462;-74
2023/05/25 09:48:56;;;;;;;8.00;6.87;;;14.20;99.90;;;;;;5032533;28;20419;-74
2023/05/25 09:51:22;;;;;;;8.40;6.13;;;14.20;99.90;;;;;;5050767;28;21083;-74
2023/05/25 09:53:48;;;;;;;9.43;6.57;;;14.20;99.90;;;;;;5050664;28;20170;-74
2023/05/25 09:56:13;;;;;;;13.10;6.60;;;14.20;99.90;;;;;;5032913;28;20287;-74
2023/05/25 09:58:40;;;;;;;10.50;6.77;;;14.20;99.90;;;;;;5050214;28;20505;-74
2023/05/25 10:01:06;;;;;;;10.80;6.60;;;14.10;99.90;;;;;;5050486;28;20193;-74
2023/05/25 10:03:32;;;;;;;6.80;5.80;;;14.10;99.90;;;;;;5050455;28;20427;-74
2023/05/25 10:05:58;;;;;;;8.70;5.63;;;14.10;99.90;;;;;;5048383;28;20229;-74
2023/05/25 10:08:24;;;;;;;9.20;7.30;;;14.10;99.90;;;;;;5050264;28;20178;-74
2023/05/25 10:10:50;;;;;;;14.73;6.87;;;14.10;99.90;;;;;;5050330;28;20459;-74
2023/05/25 10:13:28;;;;;;;13.33;7.80;;;14.10;99.90;;;;;;5050326;28;20392;-74
2023/05/25 10:15:55;;;;;;;8.47;6.93;;;14.00;99.90;;;;;;5050417;28;20427;-74
2023/05/25 10:18:25;;;;;;;13.50;6.87;;;14.00;99.90;;;;;;5032203;28;20496;-74
2023/05/25 10:20:59;;;;;;;11.27;7.00;;;14.10;99.90;;;;;;5050118;28;20499;-74
2023/05/25 10:23:29;;;;;;;8.60;6.60;;;14.00;99.90;;;;;;5049987;28;20527;-74
2023/05/25 10:25:59;;;;;;;11.90;7.37;;;14.10;99.90;;;;;;5047351;28;20979;-74
2023/05/25 10:28:30;;;;;;;13.90;7.10;;;14.10;99.90;;;;;;5031063;28;20507;-74
2023/05/25 10:30:59;;;;;;;15.23;7.77;;;14.10;99.90;;;;;;5031489;28;20460;-74
2023/05/25 10:33:25;;;;;;;10.27;7.77;;;14.10;99.90;;;;;;5049493;28;20427;-74
2023/05/25 10:35:53;;;;;;;13.83;7.60;;;14.10;99.90;;;;;;5049497;28;20430;-74
2023/05/25 10:38:19;;;;;;;8.33;7.40;;;14.10;99.90;;;;;;5049443;28;20423;-74
2023/05/25 10:40:51;;;;;;;13.33;7.60;;;14.10;99.90;;;;;;5047978;28;21076;-73
2023/05/25 10:43:19;;;;;;;9.87;7.80;;;14.10;99.90;;;;;;5049211;28;20440;-74
2023/05/25 10:45:45;;;;;;;12.70;7.77;;;14.20;99.90;;;;;;5049319;28;20542;-74
2023/05/25 10:48:15;;;;;;;8.70;7.80;;;14.20;99.90;;;;;;5049507;28;20464;-74
2023/05/25 10:50:40;;;;;;;18.30;9.37;;;14.10;99.90;;;;;;5049279;28;20460;-74
2023/05/25 10:53:11;;;;;;;11.33;7.40;;;14.10;99.90;;;;;;5049257;28;20416;-74
2023/05/25 10:55:48;;;;;;;11.70;9.27;;;14.10;99.90;;;;;;5049371;28;20246;-75
2023/05/25 10:58:16;;;;;;;9.70;7.90;;;14.10;99.90;;;;;;5044287;28;20503;-74
2023/05/25 11:00:55;;;;;;;9.90;8.90;;;14.10;99.90;;;;;;5049202;28;20456;-74
2023/05/25 11:03:21;;;;;;;8.70;7.27;;;14.20;99.90;;;;;;5049133;28;20416;-75
2023/05/25 11:05:49;;;;;;;9.73;7.80;;;14.20;99.90;;;;;;5047622;28;20404;-74
2023/05/25 11:08:16;;;;;;;10.50;8.30;;;14.20;99.90;;;;;;5049028;28;20495;-75
2023/05/25 11:10:42;;;;;;;10.57;8.70;;;14.40;99.90;;;;;;5030483;28;20460;-74
2023/05/25 11:13:29;;;;;;;13.30;8.50;;;14.40;99.90;;;;;;5049213;28;20496;-74
2023/05/25 11:16:06;;;;;;;10.67;8.40;;;14.60;99.90;;;;;;5049098;28;20280;-74
2023/05/25 11:18:42;;;;;;;13.37;8.10;;;14.70;99.90;;;;;;5048822;28;20446;-74
2023/05/25 11:21:12;;;;;;;11.90;7.93;;;14.80;99.90;;;;;;5043234;28;20412;-74
2023/05/25 11:24:01;;;;;;;13.77;8.20;;;14.80;99.90;;;;;;5048740;28;20498;-74
2023/05/25 11:26:32;;;;;;;15.83;8.40;;;14.80;99.90;;;;;;5031299;28;20984;-74
2023/05/25 11:28:59;;;;;;;12.20;7.97;;;14.90;99.90;;;;;;5048335;28;20428;-75
2023/05/25 11:31:32;;;;;;;8.90;8.03;;;14.80;99.90;;;;;;5048651;28;20800;-75
2023/05/25 11:34:00;;;;;;;10.77;8.10;;;14.80;99.90;;;;;;5048636;28;20768;-74
2023/05/25 11:36:30;;;;;;;10.77;7.50;;;14.90;99.90;;;;;;5048770;28;20432;-74
2023/05/25 11:38:56;;;;;;;11.43;8.33;;;14.90;99.90;;;;;;5045452;28;20788;-74
2023/05/25 11:41:22;;;;;;;15.10;8.50;;;14.90;99.90;;;;;;5048571;28;20416;-74
2023/05/25 11:43:50;;;;;;;11.20;7.80;;;14.90;99.90;;;;;;5048690;28;20446;-74
2023/05/25 11:46:18;;;;;;;11.47;8.13;;;14.90;99.90;;;;;;5031031;28;20987;-74
2023/05/25 11:48:52;;;;;;;14.87;8.43;;;15.00;99.90;;;;;;5048544;28;20414;-74
2023/05/25 11:51:23;;;;;;;10.57;8.13;;;15.00;99.90;;;;;;5048557;28;21024;-74
2023/05/25 11:53:49;;;;;;;7.73;6.70;;;14.90;99.90;;;;;;5048582;28;20409;-74
2023/05/25 11:56:17;;;;;;;12.00;8.27;;;14.90;99.90;;;;;;5048955;28;20863;-74
2023/05/25 11:58:44;;;;;;;11.60;7.57;;;14.90;99.90;;;;;;5048392;28;20419;-74
2023/05/25 12:01:20;;;;;;;16.43;8.67;;;15.00;99.90;;;;;;5048515;28;21076;-74
2023/05/25 12:03:57;;;;;;;12.03;8.47;;;15.00;99.90;;;;;;5048638;28;20945;-74
2023/05/25 12:06:35;;;;;;;8.53;7.60;;;15.00;99.90;;;;;;5047597;28;20455;-74
2023/05/25 12:09:02;;;;;;;13.03;7.53;;;15.00;99.90;;;;;;5048332;28;20773;-74
2023/05/25 12:11:33;;;;;;;13.37;7.77;;;15.00;99.90;;;;;;5048502;28;20416;-75
2023/05/25 12:14:01;;;;;;;9.93;7.10;;;14.90;99.90;;;;;;5048469;28;20482;-74
2023/05/25 12:16:27;;;;;;;14.13;7.80;;;15.00;99.90;;;;;;5030905;28;20825;-75
2023/05/25 12:18:53;;;;;;;9.73;7.77;;;15.00;99.90;;;;;;5048251;28;20432;-74
2023/05/25 12:21:21;;;;;;;14.10;7.63;;;15.10;99.90;;;;;;5050729;28;20491;-73
2023/05/25 12:23:47;;;;;;;8.70;7.60;;;15.20;99.90;;;;;;5034472;28;20447;-74
2023/05/25 12:26:15;;;;;;;12.50;8.10;;;15.20;99.90;;;;;;5052633;28;20428;-74
2023/05/25 12:29:00;;;;;;;11.73;7.90;;;15.10;99.90;;;;;;5034094;28;20427;-74
2023/05/25 12:31:27;;;;;;;9.40;7.00;;;15.20;99.90;;;;;;5034306;28;20932;-74
2023/05/25 12:34:02;;;;;;;11.40;7.97;;;15.20;99.90;;;;;;5051995;28;20412;-74
2023/05/25 12:36:52;;;;;;;10.43;7.63;;;15.20;99.90;;;;;;5052276;28;20430;-74
2023/05/25 12:39:31;;;;;;;12.60;7.13;;;15.20;99.90;;;;;;5052162;28;20409;-74